createdAt,value
2022-09-05T05:56:19.636Z,101416.84
2022-09-05T06:02:08.121Z,101417.13
2022-09-05T06:05:14.997Z,101418.47
2022-09-05T06:12:11.677Z,101417.28
2022-09-05T06:14:59.033Z,101414.94
2022-09-05T06:15:01.923Z,101410.50
2022-09-05T06:21:44.112Z,101421.25
2022-09-05T06:23:38.782Z,101419.34
2022-09-05T06:26:30.543Z,101428.19
2022-09-05T06:29:21.658Z,101430.41
2022-09-05T06:32:03.142Z,101430.50
2022-09-05T06:34:42.977Z,101428.31
2022-09-05T06:37:25.019Z,101445.50
2022-09-05T06:40:13.909Z,101441.31
2022-09-05T06:43:04.836Z,101438.19
2022-09-05T06:46:11.055Z,101445.03
2022-09-05T06:49:30.010Z,101435.06
2022-09-05T06:52:29.435Z,101439.31
2022-09-05T06:55:35.978Z,101434.56
2022-09-05T06:58:42.417Z,101438.22
2022-09-05T07:01:11.374Z,101431.69
2022-09-05T07:05:14.720Z,101437.84
2022-09-05T07:07:07.711Z,101430.84
2022-09-05T07:09:46.122Z,101433.88
2022-09-05T07:12:19.767Z,101431.75
2022-09-05T07:14:48.176Z,101432.28
2022-09-05T07:18:08.535Z,101431.53
2022-09-05T07:21:13.536Z,101427.94
2022-09-05T07:24:06.541Z,101421.59
2022-09-05T07:26:54.733Z,101426.19
2022-09-05T07:29:35.083Z,101415.94
2022-09-05T07:32:07.461Z,101414.59
2022-09-05T07:34:37.680Z,101410.34
2022-09-05T07:37:23.302Z,101411.63
2022-09-05T07:40:04.053Z,101420.47
2022-09-05T07:43:09.946Z,101415.50
2022-09-05T07:45:52.298Z,101407.91
2022-09-05T07:56:46.627Z,101397.00
2022-09-05T07:56:54.564Z,101395.06
2022-09-05T07:57:31.425Z,101392.19
2022-09-05T08:00:25.504Z,101379.09
2022-09-05T08:03:00.100Z,101382.06
2022-09-05T08:05:37.605Z,101375.06
2022-09-05T08:08:22.882Z,101381.41
2022-09-05T08:11:22.629Z,101385.84
2022-09-05T08:14:27.057Z,101380.50
2022-09-05T08:16:46.757Z,101370.22
2022-09-05T08:20:40.660Z,101386.69
2022-09-05T08:23:26.044Z,101367.53
2022-09-05T08:26:11.338Z,101368.56
2022-09-05T08:29:11.999Z,101367.53
2022-09-05T08:32:10.539Z,101368.22
2022-09-05T08:35:03.757Z,101370.25
2022-09-05T08:37:34.995Z,101369.25
2022-09-05T08:40:19.365Z,101359.13
2022-09-05T08:45:01.107Z,101361.13
2022-09-05T08:46:42.888Z,101357.41
2022-09-05T08:49:00.703Z,101355.81
2022-09-05T08:52:03.534Z,101362.31
2022-09-05T08:55:05.796Z,101354.91
2022-09-05T08:58:13.772Z,101352.81
2022-09-05T09:00:55.091Z,101349.91
2022-09-05T09:03:56.411Z,101348.75
2022-09-05T09:06:59.463Z,101345.88
2022-09-05T09:10:10.722Z,101348.09
2022-09-05T09:13:17.621Z,101344.88
2022-09-05T09:16:00.481Z,101335.97
2022-09-05T09:19:01.199Z,101335.31
2022-09-05T09:21:43.989Z,101325.00
2022-09-05T09:24:47.045Z,101329.97
2022-09-05T09:28:43.706Z,101320.63
2022-09-05T09:31:07.087Z,101314.09
2022-09-05T09:33:43.006Z,101321.66
2022-09-05T09:36:35.961Z,101304.31
2022-09-05T09:39:38.296Z,101299.34
2022-09-05T09:42:51.068Z,101306.50
2022-09-05T09:45:27.676Z,101296.00
2022-09-05T09:48:10.757Z,101296.41
2022-09-05T09:50:59.413Z,101290.09
2022-09-05T09:53:49.962Z,101289.50
2022-09-05T09:56:35.992Z,101283.13
2022-09-05T09:59:07.135Z,101285.16
2022-09-05T10:01:52.279Z,101279.00
2022-09-05T10:10:35.579Z,101282.34
2022-09-05T10:10:53.992Z,101276.31
2022-09-05T10:11:40.159Z,101274.03
2022-09-05T10:14:42.169Z,101270.22
2022-09-05T10:17:27.365Z,101264.25
2022-09-05T10:20:32.429Z,101266.75
2022-09-05T10:23:21.605Z,101265.09
2022-09-05T10:26:20.871Z,101268.03
2022-09-05T10:29:37.163Z,101258.56
2022-09-05T10:34:23.463Z,101252.94
2022-09-05T10:35:23.761Z,101247.63
2022-09-05T10:38:11.962Z,101243.47
2022-09-05T10:41:06.665Z,101247.06
2022-09-05T10:43:34.838Z,101248.41
2022-09-05T10:46:54.001Z,101247.53
2022-09-05T10:49:31.193Z,101249.22
2022-09-05T10:52:34.349Z,101251.63
2022-09-05T10:55:39.985Z,101249.63
2022-09-05T10:58:52.502Z,101243.66
2022-09-05T11:02:28.440Z,101242.16
2022-09-05T11:04:52.925Z,101238.94
2022-09-05T11:07:29.450Z,101224.91
2022-09-05T11:10:13.548Z,101228.56
2022-09-05T11:13:01.287Z,101223.66
2022-09-05T11:16:03.800Z,101229.69
2022-09-05T11:18:56.030Z,101224.22
2022-09-05T11:22:05.249Z,101224.75
2022-09-05T11:24:59.956Z,101205.78
2022-09-05T11:27:46.314Z,101210.06
2022-09-05T11:30:20.283Z,101215.00
2022-09-05T11:39:47.883Z,101203.03
2022-09-05T11:39:53.152Z,101207.28
2022-09-05T11:39:55.849Z,101195.16
2022-09-05T11:42:10.554Z,101199.59
2022-09-05T11:45:07.823Z,101198.06
2022-09-05T11:48:03.356Z,101192.06
2022-09-05T11:50:46.891Z,101182.63
2022-09-05T11:53:42.559Z,101185.72
2022-09-05T11:56:28.949Z,101182.63
2022-09-05T11:59:15.284Z,101174.59
2022-09-05T12:02:24.874Z,101176.31
2022-09-05T12:05:50.087Z,101164.34
2022-09-05T12:08:04.904Z,101156.09
2022-09-05T12:10:47.150Z,101156.47
2022-09-05T12:13:34.759Z,101154.41
2022-09-05T12:16:17.841Z,101141.19
2022-09-05T12:19:14.188Z,101141.72
2022-09-05T12:22:09.044Z,101139.72
2022-09-05T12:29:09.596Z,101153.75
2022-09-05T12:33:24.263Z,101142.06
2022-09-05T12:36:06.729Z,101139.66
2022-09-05T12:40:51.944Z,101144.78
2022-09-05T12:41:36.952Z,101145.59
2022-09-05T12:42:10.209Z,101151.19
2022-09-05T12:44:29.908Z,101143.84
2022-09-05T12:46:04.759Z,101145.81
2022-09-05T12:48:44.248Z,101139.78
2022-09-05T12:51:46.039Z,101136.69
2022-09-05T12:54:32.688Z,101136.75
2022-09-05T13:03:02.854Z,101132.13
2022-09-05T13:03:09.051Z,101140.84
2022-09-05T13:03:28.879Z,101119.47
2022-09-05T13:06:06.091Z,101124.78
2022-09-05T13:08:59.746Z,101122.94
2022-09-05T13:14:46.573Z,101126.81
2022-09-05T13:15:20.073Z,101118.41
2022-09-05T13:18:10.535Z,101118.81
2022-09-05T13:20:46.473Z,101108.69
2022-09-05T13:23:23.691Z,101109.00
2022-09-05T13:26:10.391Z,101114.88
2022-09-05T13:29:08.427Z,101114.81
2022-09-05T13:37:58.801Z,101120.75
2022-09-05T13:38:20.635Z,101123.84
2022-09-05T13:38:30.785Z,101118.59
2022-09-05T13:40:40.335Z,101115.28
2022-09-05T13:43:15.240Z,101118.28
2022-09-05T13:46:19.566Z,101114.91
2022-09-05T13:51:44.101Z,101106.44
2022-09-05T13:54:36.614Z,101105.75
2022-09-05T13:57:32.559Z,101110.81
2022-09-05T14:00:27.324Z,101112.97
2022-09-05T14:03:38.948Z,101108.13
2022-09-05T14:06:46.713Z,101103.50
2022-09-05T14:12:00.254Z,101095.28
2022-09-05T14:20:42.878Z,101092.88
2022-09-05T14:23:16.135Z,101101.81
2022-09-05T14:25:49.947Z,101100.72
2022-09-05T14:28:39.133Z,101108.63
2022-09-05T14:34:52.015Z,101103.47
2022-09-05T14:38:00.595Z,101103.13
2022-09-05T14:38:00.828Z,101108.56
2022-09-05T14:40:57.784Z,101105.22
2022-09-05T14:43:40.232Z,101109.03
2022-09-05T14:46:45.569Z,101103.66
2022-09-05T14:49:40.679Z,101104.94
2022-09-05T14:52:15.900Z,101117.63
2022-09-05T15:02:38.309Z,101110.72
2022-09-05T15:02:45.354Z,101117.19
2022-09-05T15:03:12.807Z,101118.75
2022-09-05T15:05:50.276Z,101106.66
2022-09-05T15:09:28.613Z,101107.38
2022-09-05T15:12:23.426Z,101101.59
2022-09-05T15:14:13.196Z,101106.03
2022-09-05T15:16:45.891Z,101103.13
2022-09-05T15:20:05.262Z,101104.84
2022-09-05T15:22:41.964Z,101094.41
2022-09-05T15:25:17.282Z,101091.31
2022-09-05T15:27:47.217Z,101090.63
2022-09-05T15:30:35.109Z,101096.22
2022-09-05T15:33:25.617Z,101093.50
2022-09-05T15:35:56.179Z,101095.38
2022-09-05T15:38:35.183Z,101093.84
2022-09-05T15:41:24.518Z,101100.94
2022-09-05T15:44:02.526Z,101114.69
2022-09-05T15:46:42.562Z,101136.00
2022-09-05T15:49:25.938Z,101162.53
2022-09-05T15:51:57.554Z,101160.75
2022-09-05T15:54:39.192Z,101167.53
2022-09-05T15:57:18.133Z,101167.44
2022-09-05T15:59:49.796Z,101173.97
2022-09-05T16:02:31.380Z,101176.53
2022-09-05T16:10:27.337Z,101172.72
2022-09-05T16:10:39.376Z,101181.94
2022-09-05T16:14:28.407Z,101177.56
2022-09-05T16:23:15.376Z,101180.63
2022-09-05T16:23:30.259Z,101192.44
2022-09-05T16:23:41.462Z,101188.47
2022-09-05T16:26:25.440Z,101194.78
2022-09-05T16:29:07.145Z,101185.19
2022-09-05T16:31:40.709Z,101176.56
2022-09-05T16:34:16.216Z,101171.72
2022-09-05T16:37:08.572Z,101155.28
2022-09-05T16:39:43.759Z,101164.72
2022-09-05T16:42:23.981Z,101172.56
2022-09-05T16:45:17.597Z,101183.03
2022-09-05T16:48:14.509Z,101183.19
2022-09-05T16:50:51.948Z,101184.75
2022-09-05T16:53:30.565Z,101208.19
2022-09-05T16:56:12.610Z,101196.72
2022-09-05T16:59:01.527Z,101205.63
2022-09-05T17:02:11.857Z,101206.63
2022-09-05T17:05:05.805Z,101209.63
2022-09-05T17:07:55.093Z,101209.59
2022-09-05T17:10:58.199Z,101211.28
2022-09-05T17:14:12.350Z,101213.34
2022-09-05T17:17:02.285Z,101224.13
2022-09-05T17:20:06.172Z,101237.34
2022-09-05T17:29:20.394Z,101225.44
2022-09-05T17:29:33.614Z,101217.13
2022-09-05T17:30:32.207Z,101214.81
2022-09-05T17:31:54.315Z,101227.94
2022-09-05T17:35:17.587Z,101226.63
2022-09-05T17:38:22.145Z,101233.72
2022-09-05T17:41:09.002Z,101234.69
2022-09-05T17:43:41.571Z,101234.47
2022-09-05T17:46:38.446Z,101233.16
2022-09-05T17:49:43.385Z,101238.50
2022-09-05T17:52:22.438Z,101241.75
2022-09-05T17:54:52.653Z,101239.84
2022-09-05T17:57:29.030Z,101248.09
2022-09-05T18:00:40.832Z,101250.47
2022-09-05T18:03:11.257Z,101251.81
2022-09-05T18:06:23.910Z,101242.97
2022-09-05T18:09:04.673Z,101243.34
2022-09-05T18:13:31.343Z,101245.91
2022-09-05T18:15:33.072Z,101251.81
2022-09-05T18:21:21.720Z,101254.66
2022-09-05T18:24:11.943Z,101260.53
2022-09-05T18:27:15.090Z,101248.69
2022-09-05T18:30:26.162Z,101245.72
2022-09-05T18:33:56.122Z,101242.00
2022-09-05T18:36:34.049Z,101244.06
2022-09-05T18:39:29.577Z,101239.03
2022-09-05T18:42:26.630Z,101237.41
2022-09-05T18:44:59.419Z,101238.53
2022-09-05T18:47:53.249Z,101236.94
2022-09-05T18:50:46.903Z,101237.06
2022-09-05T18:53:35.128Z,101237.19
2022-09-05T18:56:20.454Z,101242.34
2022-09-05T19:03:19.921Z,101233.34
2022-09-05T19:06:02.858Z,101239.50
2022-09-05T19:08:53.503Z,101235.94
2022-09-05T19:11:53.230Z,101223.47
2022-09-05T19:14:38.865Z,101229.91
2022-09-05T19:17:12.128Z,101229.16
2022-09-05T19:20:32.182Z,101240.00
2022-09-05T19:23:10.096Z,101234.81
2022-09-05T19:25:45.389Z,101235.69
2022-09-05T19:30:37.972Z,101232.13
2022-09-05T19:36:57.051Z,101232.38
2022-09-05T19:36:57.053Z,101236.47
2022-09-05T19:37:29.052Z,101225.03
2022-09-05T19:47:31.417Z,101224.31
2022-09-05T19:47:42.803Z,101219.84
2022-09-05T19:47:47.382Z,101214.72
2022-09-05T19:48:34.802Z,101215.69
2022-09-05T19:51:16.840Z,101216.22
2022-09-05T19:54:04.840Z,101214.16
2022-09-05T19:56:45.741Z,101213.84
2022-09-05T19:59:23.046Z,101215.94
2022-09-05T20:01:52.515Z,101213.22
2022-09-05T20:04:21.157Z,101215.78
2022-09-05T20:06:50.484Z,101213.22
2022-09-05T20:09:22.732Z,101218.63
2022-09-05T20:11:53.372Z,101218.16
2022-09-05T20:14:32.973Z,101228.72
2022-09-05T20:17:20.058Z,101231.44
2022-09-05T20:19:49.524Z,101226.03
2022-09-05T20:22:49.805Z,101222.59
2022-09-05T20:25:35.800Z,101214.47
2022-09-05T20:28:10.095Z,101217.41
2022-09-05T20:30:42.476Z,101218.41
2022-09-05T20:33:24.717Z,101224.81
2022-09-05T20:42:09.292Z,101221.38
2022-09-05T20:43:15.200Z,101219.78
2022-09-05T20:43:21.347Z,101221.66
2022-09-05T20:44:50.675Z,101218.31
2022-09-05T20:52:34.948Z,101218.69
2022-09-05T20:54:14.083Z,101213.66
2022-09-05T20:54:16.795Z,101206.03
2022-09-05T20:56:33.746Z,101210.72
2022-09-05T20:59:01.539Z,101209.13
2022-09-05T21:01:32.768Z,101201.38
2022-09-05T21:04:05.054Z,101210.59
2022-09-05T21:06:34.618Z,101205.44
2022-09-05T21:09:08.692Z,101217.22
2022-09-05T21:11:36.298Z,101211.97
2022-09-05T21:14:05.236Z,101212.09
2022-09-05T21:16:39.009Z,101206.78
2022-09-05T21:19:07.913Z,101207.13
2022-09-05T21:21:36.009Z,101215.38
2022-09-05T21:24:28.738Z,101207.38
2022-09-05T21:27:22.505Z,101208.59
2022-09-05T21:29:59.423Z,101201.75
2022-09-05T21:32:38.219Z,101206.00
2022-09-05T21:35:34.355Z,101208.22
2022-09-05T21:37:58.986Z,101210.44
2022-09-05T21:40:26.543Z,101206.13
2022-09-05T21:47:38.292Z,101204.41
2022-09-05T21:47:47.530Z,101207.25
2022-09-05T21:48:32.991Z,101200.22
2022-09-05T21:51:14.212Z,101197.75
2022-09-05T21:59:11.625Z,101186.72
2022-09-05T21:59:26.137Z,101181.53
2022-09-05T21:59:38.872Z,101193.66
2022-09-05T22:02:16.794Z,101190.59
2022-09-05T22:04:44.524Z,101189.50
2022-09-05T22:07:32.310Z,101185.53
2022-09-05T22:10:06.151Z,101180.84
2022-09-05T22:12:39.253Z,101186.72
2022-09-05T22:15:27.694Z,101193.44
2022-09-05T22:18:08.136Z,101184.06
2022-09-05T22:20:53.478Z,101192.44
2022-09-05T22:23:36.226Z,101196.44
2022-09-05T22:26:06.866Z,101198.53
2022-09-05T22:28:37.730Z,101190.97
2022-09-05T22:31:07.157Z,101189.38
2022-09-05T22:33:36.541Z,101186.78
2022-09-05T22:36:04.785Z,101184.53
2022-09-05T22:38:33.445Z,101186.63
2022-09-05T22:41:00.839Z,101190.53
2022-09-05T22:43:34.680Z,101195.38
2022-09-05T22:46:03.693Z,101192.16
2022-09-05T22:48:32.197Z,101199.88
2022-09-05T22:50:59.770Z,101194.78
2022-09-05T22:53:27.096Z,101199.34
2022-09-05T22:56:02.122Z,101198.47
2022-09-05T22:58:30.066Z,101199.69
2022-09-05T23:01:01.227Z,101196.34
2022-09-05T23:03:28.802Z,101198.41
2022-09-05T23:06:08.081Z,101200.34
2022-09-05T23:08:36.549Z,101201.56
2022-09-05T23:11:08.557Z,101196.28
2022-09-05T23:13:36.274Z,101202.00
2022-09-05T23:16:03.897Z,101191.66
2022-09-05T23:18:37.233Z,101189.50
2022-09-05T23:21:08.076Z,101187.38
2022-09-05T23:23:36.905Z,101196.88
2022-09-05T23:26:06.333Z,101192.13
2022-09-05T23:28:33.911Z,101192.47
2022-09-05T23:31:02.313Z,101191.91
2022-09-05T23:33:30.412Z,101189.53
2022-09-05T23:36:07.673Z,101193.66
2022-09-05T23:38:35.430Z,101191.25
2022-09-05T23:41:05.483Z,101197.22
2022-09-05T23:43:34.568Z,101197.69
2022-09-05T23:46:03.130Z,101195.22
2022-09-05T23:48:30.699Z,101185.28
2022-09-05T23:51:13.338Z,101196.06
2022-09-05T23:53:40.922Z,101199.09
2022-09-05T23:56:09.821Z,101196.06
2022-09-05T23:58:38.747Z,101188.94
